Terminal Aerodrome Forecast
Issued by NWS Sterling, VA

Home | Current Version | Previous Version | Text Only | Print | Product List | Glossary On
Versions: 1 2 3 4 5 6 7 8 9 10 11 12 13 14 15 16 17 18 19 20 21 22 23
000
FTUS41 KLWX 192041 AAA
TAFBWI
TAF AMD
KBWI 192041Z 1921/2024 11013G20KT P6SM FEW040 BKN190 OVC250
     FM200000 09013KT P6SM RA OVC040
     FM200100 09014KT P6SM +RA OVC025
     FM200300 09016KT 3SM +RA OVC015
     FM200800 13016G26KT 2SM RA OVC008
     FM201000 14014KT 3SM RA OVC008
     FM201200 16010KT P6SM OVC008
     FM201800 20011KT P6SM BKN110
     FM202200 20011KT 6SM -SHRA BKN070=

USA.gov is the U.S. government's official web portal to all federal, state and local government web resources and services.